sensor_id;sensor_type;location;lat;lon;timestamp;temperature;humidity
8939;DHT22;4504;48.810;9.172;2023-02-11T00:00:32;1.30;99.90
8939;DHT22;4504;48.810;9.172;2023-02-11T00:02:59;1.30;99.90
8939;DHT22;4504;48.810;9.172;2023-02-11T00:05:26;1.30;99.90
8939;DHT22;4504;48.810;9.172;2023-02-11T00:07:53;1.30;99.90
8939;DHT22;4504;48.810;9.172;2023-02-11T00:10:20;1.30;99.90
8939;DHT22;4504;48.810;9.172;2023-02-11T00:12:49;1.20;99.90
8939;DHT22;4504;48.810;9.172;2023-02-11T00:15:16;1.20;99.90
8939;DHT22;4504;48.810;9.172;2023-02-11T00:17:43;1.20;99.90
8939;DHT22;4504;48.810;9.172;2023-02-11T00:20:10;1.20;99.90
8939;DHT22;4504;48.810;9.172;2023-02-11T00:22:37;1.10;99.90
8939;DHT22;4504;48.810;9.172;2023-02-11T00:25:04;1.10;99.90
8939;DHT22;4504;48.810;9.172;2023-02-11T00:27:31;1.10;99.90
8939;DHT22;4504;48.810;9.172;2023-02-11T00:29:59;1.10;99.90
8939;DHT22;4504;48.810;9.172;2023-02-11T00:32:29;1.10;99.90
8939;DHT22;4504;48.810;9.172;2023-02-11T00:34:56;1.10;99.90
8939;DHT22;4504;48.810;9.172;2023-02-11T00:37:23;1.10;99.90
8939;DHT22;4504;48.810;9.172;2023-02-11T00:39:50;1.10;99.90
8939;DHT22;4504;48.810;9.172;2023-02-11T00:42:17;1.10;99.90
8939;DHT22;4504;48.810;9.172;2023-02-11T00:44:44;1.10;99.90
8939;DHT22;4504;48.810;9.172;2023-02-11T00:47:12;1.10;99.90
8939;DHT22;4504;48.810;9.172;2023-02-11T00:49:39;1.10;99.90
8939;DHT22;4504;48.810;9.172;2023-02-11T00:52:06;1.10;99.90
8939;DHT22;4504;48.810;9.172;2023-02-11T00:54:33;1.10;99.90
8939;DHT22;4504;48.810;9.172;2023-02-11T00:57:00;1.00;99.90
8939;DHT22;4504;48.810;9.172;2023-02-11T00:59:27;1.00;99.90
8939;DHT22;4504;48.810;9.172;2023-02-11T01:01:54;1.00;99.90
8939;DHT22;4504;48.810;9.172;2023-02-11T01:04:23;1.00;99.90
8939;DHT22;4504;48.810;9.172;2023-02-11T01:06:51;0.90;99.90
8939;DHT22;4504;48.810;9.172;2023-02-11T01:09:18;1.00;99.90
8939;DHT22;4504;48.810;9.172;2023-02-11T01:11:46;1.00;99.90
8939;DHT22;4504;48.810;9.172;2023-02-11T01:14:13;1.00;99.90
8939;DHT22;4504;48.810;9.172;2023-02-11T01:16:40;0.90;99.90
8939;DHT22;4504;48.810;9.172;2023-02-11T01:19:07;1.00;99.90
8939;DHT22;4504;48.810;9.172;2023-02-11T01:21:35;0.90;99.90
8939;DHT22;4504;48.810;9.172;2023-02-11T01:24:02;0.90;99.90
8939;DHT22;4504;48.810;9.172;2023-02-11T01:26:29;0.90;99.90
8939;DHT22;4504;48.810;9.172;2023-02-11T01:28:57;0.80;99.90
8939;DHT22;4504;48.810;9.172;2023-02-11T01:31:27;0.80;99.90
8939;DHT22;4504;48.810;9.172;2023-02-11T01:33:54;0.80;99.90
8939;DHT22;4504;48.810;9.172;2023-02-11T01:36:21;0.80;99.90
8939;DHT22;4504;48.810;9.172;2023-02-11T01:38:49;0.80;99.90
8939;DHT22;4504;48.810;9.172;2023-02-11T01:41:19;0.80;99.90
8939;DHT22;4504;48.810;9.172;2023-02-11T01:43:47;0.80;99.90
8939;DHT22;4504;48.810;9.172;2023-02-11T01:46:30;0.70;99.90
8939;DHT22;4504;48.810;9.172;2023-02-11T01:49:02;0.70;99.90
8939;DHT22;4504;48.810;9.172;2023-02-11T01:51:33;0.70;99.90
8939;DHT22;4504;48.810;9.172;2023-02-11T01:54:07;0.70;99.90
8939;DHT22;4504;48.810;9.172;2023-02-11T01:56:54;0.70;99.90
8939;DHT22;4504;48.810;9.172;2023-02-11T01:59:43;0.70;99.90
8939;DHT22;4504;48.810;9.172;2023-02-11T02:02:15;0.70;99.90
8939;DHT22;4504;48.810;9.172;2023-02-11T02:04:49;0.60;99.90
8939;DHT22;4504;48.810;9.172;2023-02-11T02:07:24;0.60;99.90
8939;DHT22;4504;48.810;9.172;2023-02-11T02:09:58;0.60;99.90
8939;DHT22;4504;48.810;9.172;2023-02-11T02:12:27;0.60;99.90
8939;DHT22;4504;48.810;9.172;2023-02-11T02:15:23;0.60;99.90
8939;DHT22;4504;48.810;9.172;2023-02-11T02:17:56;0.60;99.90
8939;DHT22;4504;48.810;9.172;2023-02-11T02:20:51;0.60;99.90
8939;DHT22;4504;48.810;9.172;2023-02-11T02:23:34;0.60;99.90
8939;DHT22;4504;48.810;9.172;2023-02-11T02:26:18;0.60;99.90
8939;DHT22;4504;48.810;9.172;2023-02-11T02:32:30;0.60;99.90
8939;DHT22;4504;48.810;9.172;2023-02-11T02:35:08;0.60;99.90
8939;DHT22;4504;48.810;9.172;2023-02-11T02:37:39;0.60;99.90
8939;DHT22;4504;48.810;9.172;2023-02-11T02:40:11;0.60;99.90
8939;DHT22;4504;48.810;9.172;2023-02-11T02:42:41;0.60;99.90
8939;DHT22;4504;48.810;9.172;2023-02-11T02:45:10;0.60;99.90
8939;DHT22;4504;48.810;9.172;2023-02-11T02:47:40;0.60;99.90
8939;DHT22;4504;48.810;9.172;2023-02-11T02:50:08;0.60;99.90
8939;DHT22;4504;48.810;9.172;2023-02-11T02:52:40;0.60;99.90
8939;DHT22;4504;48.810;9.172;2023-02-11T02:55:22;0.50;99.90
8939;DHT22;4504;48.810;9.172;2023-02-11T02:58:06;0.50;99.90
8939;DHT22;4504;48.810;9.172;2023-02-11T03:00:42;0.50;99.90
8939;DHT22;4504;48.810;9.172;2023-02-11T03:03:21;0.50;99.90
8939;DHT22;4504;48.810;9.172;2023-02-11T03:05:54;0.50;99.90
8939;DHT22;4504;48.810;9.172;2023-02-11T03:08:28;0.50;99.90
8939;DHT22;4504;48.810;9.172;2023-02-11T03:10:57;0.50;99.90
8939;DHT22;4504;48.810;9.172;2023-02-11T03:13:28;0.50;99.90
8939;DHT22;4504;48.810;9.172;2023-02-11T03:16:01;0.50;99.90
8939;DHT22;4504;48.810;9.172;2023-02-11T03:18:34;0.50;99.90
8939;DHT22;4504;48.810;9.172;2023-02-11T03:21:02;0.50;99.90
8939;DHT22;4504;48.810;9.172;2023-02-11T03:23:35;0.50;99.90
8939;DHT22;4504;48.810;9.172;2023-02-11T03:26:07;0.50;99.90
8939;DHT22;4504;48.810;9.172;2023-02-11T03:28:39;0.50;99.90
8939;DHT22;4504;48.810;9.172;2023-02-11T03:31:12;0.50;99.90
8939;DHT22;4504;48.810;9.172;2023-02-11T03:33:56;0.50;99.90
8939;DHT22;4504;48.810;9.172;2023-02-11T03:36:29;0.40;99.90
8939;DHT22;4504;48.810;9.172;2023-02-11T03:38:59;0.40;99.90
8939;DHT22;4504;48.810;9.172;2023-02-11T03:41:27;0.40;99.90
8939;DHT22;4504;48.810;9.172;2023-02-11T03:43:57;0.40;99.90
8939;DHT22;4504;48.810;9.172;2023-02-11T03:46:29;0.40;99.90
8939;DHT22;4504;48.810;9.172;2023-02-11T03:49:02;0.40;99.90
8939;DHT22;4504;48.810;9.172;2023-02-11T03:51:31;0.30;99.90
8939;DHT22;4504;48.810;9.172;2023-02-11T03:54:01;0.30;99.90
8939;DHT22;4504;48.810;9.172;2023-02-11T03:56:40;0.30;99.90
8939;DHT22;4504;48.810;9.172;2023-02-11T03:59:10;0.30;99.90
8939;DHT22;4504;48.810;9.172;2023-02-11T04:01:37;0.30;99.90
8939;DHT22;4504;48.810;9.172;2023-02-11T04:04:06;0.40;99.90
8939;DHT22;4504;48.810;9.172;2023-02-11T04:06:32;0.40;99.90
8939;DHT22;4504;48.810;9.172;2023-02-11T04:08:59;0.40;99.90
8939;DHT22;4504;48.810;9.172;2023-02-11T04:11:26;0.40;99.90
8939;DHT22;4504;48.810;9.172;2023-02-11T04:13:53;0.50;99.90
8939;DHT22;4504;48.810;9.172;2023-02-11T04:16:20;0.50;99.90
8939;DHT22;4504;48.810;9.172;2023-02-11T04:18:47;0.50;99.90
8939;DHT22;4504;48.810;9.172;2023-02-11T04:21:16;0.60;99.90
8939;DHT22;4504;48.810;9.172;2023-02-11T04:23:43;0.60;99.90
8939;DHT22;4504;48.810;9.172;2023-02-11T04:26:10;0.60;99.90
8939;DHT22;4504;48.810;9.172;2023-02-11T04:28:37;0.70;99.90
8939;DHT22;4504;48.810;9.172;2023-02-11T04:31:04;0.70;99.90
8939;DHT22;4504;48.810;9.172;2023-02-11T04:33:31;0.70;99.90
8939;DHT22;4504;48.810;9.172;2023-02-11T04:35:58;0.70;99.90
8939;DHT22;4504;48.810;9.172;2023-02-11T04:38:26;0.70;99.90
8939;DHT22;4504;48.810;9.172;2023-02-11T04:40:53;0.70;99.90
8939;DHT22;4504;48.810;9.172;2023-02-11T04:43:20;0.70;99.90
8939;DHT22;4504;48.810;9.172;2023-02-11T04:45:47;0.70;99.90
8939;DHT22;4504;48.810;9.172;2023-02-11T04:48:14;0.70;99.90
8939;DHT22;4504;48.810;9.172;2023-02-11T04:50:41;0.70;99.90
8939;DHT22;4504;48.810;9.172;2023-02-11T04:53:08;0.80;99.90
8939;DHT22;4504;48.810;9.172;2023-02-11T04:55:36;0.80;99.90
8939;DHT22;4504;48.810;9.172;2023-02-11T04:58:03;0.80;99.90
8939;DHT22;4504;48.810;9.172;2023-02-11T05:00:30;0.80;99.90
8939;DHT22;4504;48.810;9.172;2023-02-11T05:02:57;0.80;99.90
8939;DHT22;4504;48.810;9.172;2023-02-11T05:05:24;0.80;99.90
8939;DHT22;4504;48.810;9.172;2023-02-11T05:07:50;0.80;99.90
8939;DHT22;4504;48.810;9.172;2023-02-11T05:10:18;0.90;99.90
8939;DHT22;4504;48.810;9.172;2023-02-11T05:12:48;0.90;99.90
8939;DHT22;4504;48.810;9.172;2023-02-11T05:15:15;0.90;99.90
8939;DHT22;4504;48.810;9.172;2023-02-11T05:17:42;0.90;99.90
8939;DHT22;4504;48.810;9.172;2023-02-11T05:20:10;0.90;99.90
8939;DHT22;4504;48.810;9.172;2023-02-11T05:22:36;0.90;99.90
8939;DHT22;4504;48.810;9.172;2023-02-11T05:25:04;0.90;99.90
8939;DHT22;4504;48.810;9.172;2023-02-11T05:27:31;1.00;99.90
8939;DHT22;4504;48.810;9.172;2023-02-11T05:29:59;1.00;99.90
8939;DHT22;4504;48.810;9.172;2023-02-11T05:32:26;1.00;99.90
8939;DHT22;4504;48.810;9.172;2023-02-11T05:34:54;0.90;99.90
8939;DHT22;4504;48.810;9.172;2023-02-11T05:37:21;0.90;99.90
8939;DHT22;4504;48.810;9.172;2023-02-11T05:39:48;0.90;99.90
8939;DHT22;4504;48.810;9.172;2023-02-11T05:42:15;1.00;99.90
8939;DHT22;4504;48.810;9.172;2023-02-11T05:44:42;1.00;99.90
8939;DHT22;4504;48.810;9.172;2023-02-11T05:47:10;1.00;99.90
8939;DHT22;4504;48.810;9.172;2023-02-11T05:49:37;1.00;99.90
8939;DHT22;4504;48.810;9.172;2023-02-11T05:52:04;1.00;99.90
8939;DHT22;4504;48.810;9.172;2023-02-11T05:54:31;1.00;99.90
8939;DHT22;4504;48.810;9.172;2023-02-11T05:56:57;1.00;99.90
8939;DHT22;4504;48.810;9.172;2023-02-11T05:59:24;1.00;99.90
8939;DHT22;4504;48.810;9.172;2023-02-11T06:01:51;1.00;99.90
8939;DHT22;4504;48.810;9.172;2023-02-11T06:04:20;1.00;99.90
8939;DHT22;4504;48.810;9.172;2023-02-11T06:06:47;1.00;99.90
8939;DHT22;4504;48.810;9.172;2023-02-11T06:09:14;1.00;99.90
8939;DHT22;4504;48.810;9.172;2023-02-11T06:11:41;1.00;99.90
8939;DHT22;4504;48.810;9.172;2023-02-11T06:14:08;1.00;99.90
8939;DHT22;4504;48.810;9.172;2023-02-11T06:16:35;1.00;99.90
8939;DHT22;4504;48.810;9.172;2023-02-11T06:19:02;1.00;99.90
8939;DHT22;4504;48.810;9.172;2023-02-11T06:21:30;1.00;99.90
8939;DHT22;4504;48.810;9.172;2023-02-11T06:23:57;1.10;99.90
8939;DHT22;4504;48.810;9.172;2023-02-11T06:26:24;1.10;99.90
8939;DHT22;4504;48.810;9.172;2023-02-11T06:28:51;1.10;99.90
8939;DHT22;4504;48.810;9.172;2023-02-11T06:31:18;1.10;99.90
8939;DHT22;4504;48.810;9.172;2023-02-11T06:33:45;1.10;99.90
8939;DHT22;4504;48.810;9.172;2023-02-11T06:36:14;1.10;99.90
8939;DHT22;4504;48.810;9.172;2023-02-11T06:38:43;1.10;99.90
8939;DHT22;4504;48.810;9.172;2023-02-11T06:41:10;1.10;99.90
8939;DHT22;4504;48.810;9.172;2023-02-11T06:43:38;1.10;99.90
8939;DHT22;4504;48.810;9.172;2023-02-11T06:46:05;1.10;99.90
8939;DHT22;4504;48.810;9.172;2023-02-11T06:48:33;1.10;99.90
8939;DHT22;4504;48.810;9.172;2023-02-11T06:51:01;1.10;99.90
8939;DHT22;4504;48.810;9.172;2023-02-11T06:53:29;1.10;99.90
8939;DHT22;4504;48.810;9.172;2023-02-11T06:56:01;1.10;99.90
8939;DHT22;4504;48.810;9.172;2023-02-11T06:58:28;1.10;99.90
8939;DHT22;4504;48.810;9.172;2023-02-11T07:00:55;1.10;99.90
8939;DHT22;4504;48.810;9.172;2023-02-11T07:03:22;1.20;99.90
8939;DHT22;4504;48.810;9.172;2023-02-11T07:05:49;1.20;99.90
8939;DHT22;4504;48.810;9.172;2023-02-11T07:08:16;1.20;99.90
8939;DHT22;4504;48.810;9.172;2023-02-11T07:10:43;1.20;99.90
8939;DHT22;4504;48.810;9.172;2023-02-11T07:13:11;1.20;99.90
8939;DHT22;4504;48.810;9.172;2023-02-11T07:15:38;1.20;99.90
8939;DHT22;4504;48.810;9.172;2023-02-11T07:18:05;1.20;99.90
8939;DHT22;4504;48.810;9.172;2023-02-11T07:20:32;1.20;99.90
8939;DHT22;4504;48.810;9.172;2023-02-11T07:22:59;1.30;99.90
8939;DHT22;4504;48.810;9.172;2023-02-11T07:25:26;1.30;99.90
8939;DHT22;4504;48.810;9.172;2023-02-11T07:27:52;1.30;99.90
8939;DHT22;4504;48.810;9.172;2023-02-11T07:30:21;1.30;99.90
8939;DHT22;4504;48.810;9.172;2023-02-11T07:32:48;1.40;99.90
8939;DHT22;4504;48.810;9.172;2023-02-11T07:35:15;1.40;99.90
8939;DHT22;4504;48.810;9.172;2023-02-11T07:37:42;1.40;99.90
8939;DHT22;4504;48.810;9.172;2023-02-11T07:40:10;1.40;99.90
8939;DHT22;4504;48.810;9.172;2023-02-11T07:42:37;1.50;99.90
8939;DHT22;4504;48.810;9.172;2023-02-11T07:45:05;1.40;99.90
8939;DHT22;4504;48.810;9.172;2023-02-11T07:47:34;1.40;99.90
8939;DHT22;4504;48.810;9.172;2023-02-11T07:50:02;1.50;99.90
8939;DHT22;4504;48.810;9.172;2023-02-11T07:52:29;1.50;99.90
8939;DHT22;4504;48.810;9.172;2023-02-11T07:54:56;1.50;99.90
8939;DHT22;4504;48.810;9.172;2023-02-11T07:57:23;1.60;99.90
8939;DHT22;4504;48.810;9.172;2023-02-11T07:59:51;1.60;99.90
8939;DHT22;4504;48.810;9.172;2023-02-11T08:02:18;1.60;99.90
8939;DHT22;4504;48.810;9.172;2023-02-11T08:04:46;1.70;99.90
8939;DHT22;4504;48.810;9.172;2023-02-11T08:07:14;1.70;99.90
8939;DHT22;4504;48.810;9.172;2023-02-11T08:09:41;1.70;99.90
8939;DHT22;4504;48.810;9.172;2023-02-11T08:12:08;1.90;99.90
8939;DHT22;4504;48.810;9.172;2023-02-11T08:14:35;1.90;99.90
8939;DHT22;4504;48.810;9.172;2023-02-11T08:17:03;2.00;99.90
8939;DHT22;4504;48.810;9.172;2023-02-11T08:19:29;2.00;99.90
8939;DHT22;4504;48.810;9.172;2023-02-11T08:21:58;2.00;99.90
8939;DHT22;4504;48.810;9.172;2023-02-11T08:24:25;2.00;99.90
8939;DHT22;4504;48.810;9.172;2023-02-11T08:26:52;2.10;99.90
8939;DHT22;4504;48.810;9.172;2023-02-11T08:29:20;2.10;99.90
8939;DHT22;4504;48.810;9.172;2023-02-11T08:31:47;2.20;99.90
8939;DHT22;4504;48.810;9.172;2023-02-11T08:34:15;2.20;99.90
8939;DHT22;4504;48.810;9.172;2023-02-11T08:36:44;2.20;99.90
8939;DHT22;4504;48.810;9.172;2023-02-11T08:39:15;2.30;99.90
8939;DHT22;4504;48.810;9.172;2023-02-11T08:41:42;2.20;99.90
8939;DHT22;4504;48.810;9.172;2023-02-11T08:44:10;2.30;99.90
8939;DHT22;4504;48.810;9.172;2023-02-11T08:46:37;2.30;99.90
8939;DHT22;4504;48.810;9.172;2023-02-11T08:49:04;2.30;99.90
8939;DHT22;4504;48.810;9.172;2023-02-11T08:51:31;2.30;99.90
8939;DHT22;4504;48.810;9.172;2023-02-11T08:53:58;2.30;99.90
8939;DHT22;4504;48.810;9.172;2023-02-11T08:56:27;2.30;99.90
8939;DHT22;4504;48.810;9.172;2023-02-11T08:58:56;2.40;99.90
8939;DHT22;4504;48.810;9.172;2023-02-11T09:01:24;2.40;99.90
8939;DHT22;4504;48.810;9.172;2023-02-11T09:03:52;2.50;99.90
8939;DHT22;4504;48.810;9.172;2023-02-11T09:06:20;2.50;99.90
8939;DHT22;4504;48.810;9.172;2023-02-11T09:08:49;2.50;99.90
8939;DHT22;4504;48.810;9.172;2023-02-11T09:11:17;2.60;99.90
8939;DHT22;4504;48.810;9.172;2023-02-11T09:13:45;2.70;99.90
8939;DHT22;4504;48.810;9.172;2023-02-11T09:16:16;2.70;99.90
8939;DHT22;4504;48.810;9.172;2023-02-11T09:18:44;2.80;99.90
8939;DHT22;4504;48.810;9.172;2023-02-11T09:21:12;2.80;99.90
8939;DHT22;4504;48.810;9.172;2023-02-11T09:23:39;2.90;99.90
8939;DHT22;4504;48.810;9.172;2023-02-11T09:26:10;2.90;99.90
8939;DHT22;4504;48.810;9.172;2023-02-11T09:28:38;3.00;99.90
8939;DHT22;4504;48.810;9.172;2023-02-11T09:31:07;3.00;99.90
8939;DHT22;4504;48.810;9.172;2023-02-11T09:33:35;3.00;99.90
8939;DHT22;4504;48.810;9.172;2023-02-11T09:36:03;3.10;99.90
8939;DHT22;4504;48.810;9.172;2023-02-11T09:38:31;3.10;99.90
8939;DHT22;4504;48.810;9.172;2023-02-11T09:40:58;3.10;99.90
8939;DHT22;4504;48.810;9.172;2023-02-11T09:43:32;3.20;99.90
8939;DHT22;4504;48.810;9.172;2023-02-11T09:46:03;3.20;99.90
8939;DHT22;4504;48.810;9.172;2023-02-11T09:48:38;3.20;99.90
8939;DHT22;4504;48.810;9.172;2023-02-11T09:51:14;3.30;99.90
8939;DHT22;4504;48.810;9.172;2023-02-11T09:53:43;3.30;99.90
8939;DHT22;4504;48.810;9.172;2023-02-11T09:56:12;3.40;99.90
8939;DHT22;4504;48.810;9.172;2023-02-11T09:58:41;3.50;99.90
8939;DHT22;4504;48.810;9.172;2023-02-11T10:01:17;3.50;99.90
8939;DHT22;4504;48.810;9.172;2023-02-11T10:03:59;3.60;99.90
8939;DHT22;4504;48.810;9.172;2023-02-11T10:06:42;3.70;99.90
8939;DHT22;4504;48.810;9.172;2023-02-11T10:09:31;3.80;99.90
8939;DHT22;4504;48.810;9.172;2023-02-11T10:15:08;3.80;99.90
8939;DHT22;4504;48.810;9.172;2023-02-11T10:17:46;3.90;99.90
8939;DHT22;4504;48.810;9.172;2023-02-11T10:20:24;3.90;99.90
8939;DHT22;4504;48.810;9.172;2023-02-11T10:22:56;3.90;99.90
8939;DHT22;4504;48.810;9.172;2023-02-11T10:25:25;4.00;99.90
8939;DHT22;4504;48.810;9.172;2023-02-11T10:27:55;4.10;99.90
8939;DHT22;4504;48.810;9.172;2023-02-11T10:30:27;4.20;99.90
8939;DHT22;4504;48.810;9.172;2023-02-11T10:33:01;4.30;99.90
8939;DHT22;4504;48.810;9.172;2023-02-11T10:35:31;4.40;99.90
8939;DHT22;4504;48.810;9.172;2023-02-11T10:37:58;4.50;99.90
8939;DHT22;4504;48.810;9.172;2023-02-11T10:40:27;4.50;99.90
8939;DHT22;4504;48.810;9.172;2023-02-11T10:42:56;4.60;99.90
8939;DHT22;4504;48.810;9.172;2023-02-11T10:45:29;4.60;99.90
8939;DHT22;4504;48.810;9.172;2023-02-11T10:47:57;4.70;99.90
8939;DHT22;4504;48.810;9.172;2023-02-11T10:50:27;4.90;99.90
8939;DHT22;4504;48.810;9.172;2023-02-11T10:53:11;5.00;99.90
8939;DHT22;4504;48.810;9.172;2023-02-11T10:55:48;5.00;99.90
8939;DHT22;4504;48.810;9.172;2023-02-11T10:58:23;5.10;99.90
8939;DHT22;4504;48.810;9.172;2023-02-11T11:00:53;5.20;99.90
8939;DHT22;4504;48.810;9.172;2023-02-11T11:03:22;5.30;99.90
8939;DHT22;4504;48.810;9.172;2023-02-11T11:05:51;5.40;99.90
8939;DHT22;4504;48.810;9.172;2023-02-11T11:08:20;5.50;99.90
8939;DHT22;4504;48.810;9.172;2023-02-11T11:11:02;5.60;99.90
8939;DHT22;4504;48.810;9.172;2023-02-11T11:13:31;5.60;99.90
8939;DHT22;4504;48.810;9.172;2023-02-11T11:16:23;5.70;99.90
8939;DHT22;4504;48.810;9.172;2023-02-11T11:18:52;5.70;99.90
8939;DHT22;4504;48.810;9.172;2023-02-11T11:21:22;5.80;99.90
8939;DHT22;4504;48.810;9.172;2023-02-11T11:23:58;5.90;99.90
8939;DHT22;4504;48.810;9.172;2023-02-11T11:26:27;5.90;99.90
8939;DHT22;4504;48.810;9.172;2023-02-11T11:28:59;5.90;99.90
8939;DHT22;4504;48.810;9.172;2023-02-11T11:31:30;6.00;99.90
8939;DHT22;4504;48.810;9.172;2023-02-11T11:33:58;6.10;99.90
8939;DHT22;4504;48.810;9.172;2023-02-11T11:36:33;6.20;99.90
8939;DHT22;4504;48.810;9.172;2023-02-11T11:39:16;6.30;99.90
8939;DHT22;4504;48.810;9.172;2023-02-11T11:41:51;6.40;99.90
8939;DHT22;4504;48.810;9.172;2023-02-11T11:44:24;6.40;99.90
8939;DHT22;4504;48.810;9.172;2023-02-11T11:47:05;6.60;99.90
8939;DHT22;4504;48.810;9.172;2023-02-11T11:49:36;6.60;99.90
8939;DHT22;4504;48.810;9.172;2023-02-11T11:52:15;6.70;99.90
8939;DHT22;4504;48.810;9.172;2023-02-11T11:54:49;6.80;99.90
8939;DHT22;4504;48.810;9.172;2023-02-11T11:57:22;6.90;99.90
8939;DHT22;4504;48.810;9.172;2023-02-11T11:59:51;7.00;99.90
8939;DHT22;4504;48.810;9.172;2023-02-11T12:03:08;7.20;99.90
8939;DHT22;4504;48.810;9.172;2023-02-11T12:05:44;7.40;99.90
8939;DHT22;4504;48.810;9.172;2023-02-11T12:08:22;7.40;99.90
8939;DHT22;4504;48.810;9.172;2023-02-11T12:11:09;7.50;99.90
8939;DHT22;4504;48.810;9.172;2023-02-11T12:13:48;7.60;99.90
8939;DHT22;4504;48.810;9.172;2023-02-11T12:16:26;7.60;99.90
8939;DHT22;4504;48.810;9.172;2023-02-11T12:19:22;7.70;99.90
8939;DHT22;4504;48.810;9.172;2023-02-11T12:21:58;7.80;99.90
8939;DHT22;4504;48.810;9.172;2023-02-11T12:24:37;7.90;99.90
8939;DHT22;4504;48.810;9.172;2023-02-11T12:27:15;8.00;99.90
8939;DHT22;4504;48.810;9.172;2023-02-11T12:29:55;8.10;99.90
8939;DHT22;4504;48.810;9.172;2023-02-11T12:32:32;8.10;99.90
8939;DHT22;4504;48.810;9.172;2023-02-11T12:35:21;8.10;99.90
8939;DHT22;4504;48.810;9.172;2023-02-11T12:38:11;8.00;99.90
8939;DHT22;4504;48.810;9.172;2023-02-11T12:40:45;8.00;99.90
8939;DHT22;4504;48.810;9.172;2023-02-11T12:43:22;8.00;99.90
8939;DHT22;4504;48.810;9.172;2023-02-11T12:45:58;8.10;99.90
8939;DHT22;4504;48.810;9.172;2023-02-11T12:51:47;8.10;99.90
8939;DHT22;4504;48.810;9.172;2023-02-11T12:54:19;8.20;99.90
8939;DHT22;4504;48.810;9.172;2023-02-11T12:56:52;8.20;99.90
8939;DHT22;4504;48.810;9.172;2023-02-11T12:59:40;8.20;99.90
8939;DHT22;4504;48.810;9.172;2023-02-11T13:02:16;8.30;99.90
8939;DHT22;4504;48.810;9.172;2023-02-11T13:04:47;8.30;99.90
8939;DHT22;4504;48.810;9.172;2023-02-11T13:07:19;8.30;99.90
8939;DHT22;4504;48.810;9.172;2023-02-11T13:09:51;8.30;99.90
8939;DHT22;4504;48.810;9.172;2023-02-11T13:12:20;8.30;99.90
8939;DHT22;4504;48.810;9.172;2023-02-11T13:15:17;8.30;99.90
8939;DHT22;4504;48.810;9.172;2023-02-11T13:17:51;8.30;99.90
8939;DHT22;4504;48.810;9.172;2023-02-11T13:20:32;8.30;99.90
8939;DHT22;4504;48.810;9.172;2023-02-11T13:23:08;8.20;99.90
8939;DHT22;4504;48.810;9.172;2023-02-11T13:25:41;8.20;99.90
8939;DHT22;4504;48.810;9.172;2023-02-11T13:28:21;8.10;99.90
8939;DHT22;4504;48.810;9.172;2023-02-11T13:30:52;8.10;99.90
8939;DHT22;4504;48.810;9.172;2023-02-11T13:33:32;8.10;99.90
8939;DHT22;4504;48.810;9.172;2023-02-11T13:36:12;8.10;99.90
8939;DHT22;4504;48.810;9.172;2023-02-11T13:38:40;8.10;99.90
8939;DHT22;4504;48.810;9.172;2023-02-11T13:41:18;8.20;99.90
8939;DHT22;4504;48.810;9.172;2023-02-11T13:43:57;8.20;99.90
8939;DHT22;4504;48.810;9.172;2023-02-11T13:46:46;8.30;99.90
8939;DHT22;4504;48.810;9.172;2023-02-11T13:49:21;8.30;99.90
8939;DHT22;4504;48.810;9.172;2023-02-11T13:51:50;8.30;99.90
8939;DHT22;4504;48.810;9.172;2023-02-11T13:54:24;8.40;99.90
8939;DHT22;4504;48.810;9.172;2023-02-11T13:57:22;8.50;99.90
8939;DHT22;4504;48.810;9.172;2023-02-11T13:59:52;8.60;99.90
8939;DHT22;4504;48.810;9.172;2023-02-11T14:02:24;8.60;99.90
8939;DHT22;4504;48.810;9.172;2023-02-11T14:05:21;8.70;99.90
8939;DHT22;4504;48.810;9.172;2023-02-11T14:08:15;8.80;99.90
8939;DHT22;4504;48.810;9.172;2023-02-11T14:11:01;8.80;99.90
8939;DHT22;4504;48.810;9.172;2023-02-11T14:13:34;8.80;99.90
8939;DHT22;4504;48.810;9.172;2023-02-11T14:16:08;8.90;99.90
8939;DHT22;4504;48.810;9.172;2023-02-11T14:18:40;8.90;99.90
8939;DHT22;4504;48.810;9.172;2023-02-11T14:21:31;9.00;99.90
8939;DHT22;4504;48.810;9.172;2023-02-11T14:27:05;9.10;99.90
8939;DHT22;4504;48.810;9.172;2023-02-11T14:29:39;9.10;99.90
8939;DHT22;4504;48.810;9.172;2023-02-11T14:32:15;9.10;99.90
8939;DHT22;4504;48.810;9.172;2023-02-11T14:34:52;9.20;99.90
8939;DHT22;4504;48.810;9.172;2023-02-11T14:37:30;9.10;99.90
8939;DHT22;4504;48.810;9.172;2023-02-11T14:40:08;9.10;99.90
8939;DHT22;4504;48.810;9.172;2023-02-11T14:42:37;9.10;99.90
8939;DHT22;4504;48.810;9.172;2023-02-11T14:45:06;9.20;99.90
8939;DHT22;4504;48.810;9.172;2023-02-11T14:47:40;9.30;99.90
8939;DHT22;4504;48.810;9.172;2023-02-11T14:50:16;9.40;99.80
8939;DHT22;4504;48.810;9.172;2023-02-11T14:52:44;9.40;99.50
8939;DHT22;4504;48.810;9.172;2023-02-11T14:55:17;9.60;99.40
8939;DHT22;4504;48.810;9.172;2023-02-11T14:57:46;9.60;99.20
8939;DHT22;4504;48.810;9.172;2023-02-11T15:00:17;9.70;98.90
8939;DHT22;4504;48.810;9.172;2023-02-11T15:02:44;9.60;98.80
8939;DHT22;4504;48.810;9.172;2023-02-11T15:05:19;9.60;99.10
8939;DHT22;4504;48.810;9.172;2023-02-11T15:07:48;9.50;99.10
8939;DHT22;4504;48.810;9.172;2023-02-11T15:10:18;9.50;99.50
8939;DHT22;4504;48.810;9.172;2023-02-11T15:12:46;9.40;99.20
8939;DHT22;4504;48.810;9.172;2023-02-11T15:15:15;9.40;99.20
8939;DHT22;4504;48.810;9.172;2023-02-11T15:17:43;9.40;99.20
8939;DHT22;4504;48.810;9.172;2023-02-11T15:20:25;9.40;99.20
8939;DHT22;4504;48.810;9.172;2023-02-11T15:22:56;9.30;99.00
8939;DHT22;4504;48.810;9.172;2023-02-11T15:25:24;9.20;99.20
8939;DHT22;4504;48.810;9.172;2023-02-11T15:27:54;9.10;99.40
8939;DHT22;4504;48.810;9.172;2023-02-11T15:30:30;9.10;99.60
8939;DHT22;4504;48.810;9.172;2023-02-11T15:33:00;9.10;99.60
8939;DHT22;4504;48.810;9.172;2023-02-11T15:35:30;9.10;99.70
8939;DHT22;4504;48.810;9.172;2023-02-11T15:37:58;9.00;99.90
8939;DHT22;4504;48.810;9.172;2023-02-11T15:40:27;9.00;99.90
8939;DHT22;4504;48.810;9.172;2023-02-11T15:42:56;8.90;99.90
8939;DHT22;4504;48.810;9.172;2023-02-11T15:45:26;8.80;99.90
8939;DHT22;4504;48.810;9.172;2023-02-11T15:48:01;8.70;99.90
8939;DHT22;4504;48.810;9.172;2023-02-11T15:50:34;8.60;99.90
8939;DHT22;4504;48.810;9.172;2023-02-11T15:53:10;8.60;99.90
8939;DHT22;4504;48.810;9.172;2023-02-11T15:55:41;8.50;99.90
8939;DHT22;4504;48.810;9.172;2023-02-11T15:58:08;8.50;99.90
8939;DHT22;4504;48.810;9.172;2023-02-11T16:00:44;8.40;99.90
8939;DHT22;4504;48.810;9.172;2023-02-11T16:03:19;8.40;99.90
8939;DHT22;4504;48.810;9.172;2023-02-11T16:05:48;8.30;99.90
8939;DHT22;4504;48.810;9.172;2023-02-11T16:08:22;8.30;99.90
8939;DHT22;4504;48.810;9.172;2023-02-11T16:10:56;8.30;99.90
8939;DHT22;4504;48.810;9.172;2023-02-11T16:13:25;8.20;99.90
8939;DHT22;4504;48.810;9.172;2023-02-11T16:15:54;8.20;99.90
8939;DHT22;4504;48.810;9.172;2023-02-11T16:18:27;8.10;99.90
8939;DHT22;4504;48.810;9.172;2023-02-11T16:20:56;8.10;99.90
8939;DHT22;4504;48.810;9.172;2023-02-11T16:23:26;8.10;99.90
8939;DHT22;4504;48.810;9.172;2023-02-11T16:25:58;8.10;99.90
8939;DHT22;4504;48.810;9.172;2023-02-11T16:28:27;8.00;99.90
8939;DHT22;4504;48.810;9.172;2023-02-11T16:30:55;8.00;99.90
8939;DHT22;4504;48.810;9.172;2023-02-11T16:33:23;7.90;99.90
8939;DHT22;4504;48.810;9.172;2023-02-11T16:35:50;7.90;99.90
8939;DHT22;4504;48.810;9.172;2023-02-11T16:38:18;7.90;99.90
8939;DHT22;4504;48.810;9.172;2023-02-11T16:40:45;7.90;99.90
8939;DHT22;4504;48.810;9.172;2023-02-11T16:43:14;7.80;99.90
8939;DHT22;4504;48.810;9.172;2023-02-11T16:45:43;7.80;99.90
8939;DHT22;4504;48.810;9.172;2023-02-11T16:48:14;7.80;99.90
8939;DHT22;4504;48.810;9.172;2023-02-11T16:50:44;7.80;99.90
8939;DHT22;4504;48.810;9.172;2023-02-11T16:53:15;7.80;99.90
8939;DHT22;4504;48.810;9.172;2023-02-11T16:55:44;7.80;99.90